createdAt,value
2023-04-13T00:01:16.298Z,3.45
2023-04-13T00:03:46.485Z,3.60
2023-04-13T00:06:16.645Z,3.90
2023-04-13T00:08:46.867Z,3.67
2023-04-13T00:11:17.961Z,3.85
2023-04-13T00:13:47.958Z,3.42
2023-04-13T00:16:21.416Z,3.85
2023-04-13T00:18:52.521Z,3.72
2023-04-13T00:21:23.437Z,4.25
2023-04-13T00:23:53.465Z,4.15
2023-04-13T00:26:25.765Z,4.35
2023-04-13T00:28:56.004Z,4.50
2023-04-13T00:31:29.640Z,3.97
2023-04-13T00:33:59.800Z,4.32
2023-04-13T00:36:29.882Z,4.10
2023-04-13T00:39:00.052Z,4.30
2023-04-13T00:41:30.037Z,4.57
2023-04-13T00:44:01.111Z,4.43
2023-04-13T00:46:34.031Z,4.15
2023-04-13T00:49:04.895Z,4.70
2023-04-13T00:51:36.240Z,4.35
2023-04-13T00:54:06.652Z,4.70
2023-04-13T00:56:37.805Z,5.00
2023-04-13T00:59:08.811Z,4.50
2023-04-13T01:01:46.903Z,4.38
2023-04-13T01:04:18.869Z,4.88
2023-04-13T01:06:58.917Z,5.25
2023-04-13T01:09:37.225Z,4.80
2023-04-13T01:12:14.959Z,4.75
2023-04-13T01:14:53.088Z,4.72
2023-04-13T01:17:30.562Z,5.15
2023-04-13T01:20:12.041Z,4.65
2023-04-13T01:22:46.145Z,5.00
2023-04-13T01:25:32.544Z,4.68
2023-04-13T01:28:08.237Z,5.60
2023-04-13T01:30:39.581Z,5.80
2023-04-13T01:33:10.402Z,5.53
2023-04-13T01:35:41.831Z,5.78
2023-04-13T01:38:12.503Z,5.97
2023-04-13T01:40:44.840Z,5.88
2023-04-13T01:43:18.508Z,5.85
2023-04-13T01:45:57.506Z,6.00
2023-04-13T01:48:34.521Z,6.40
2023-04-13T01:51:10.952Z,6.63
2023-04-13T01:53:45.993Z,6.63
2023-04-13T01:56:19.444Z,6.30
2023-04-13T01:59:00.863Z,6.70
2023-04-13T02:01:30.833Z,7.40
2023-04-13T02:04:02.003Z,7.60
2023-04-13T02:06:32.582Z,7.63
2023-04-13T02:09:06.543Z,7.85
2023-04-13T02:11:37.692Z,8.07
2023-04-13T02:14:10.467Z,7.70
2023-04-13T02:16:40.593Z,9.20
2023-04-13T02:19:10.835Z,8.02
2023-04-13T02:21:42.262Z,8.48
2023-04-13T02:24:12.268Z,7.88
2023-04-13T02:26:42.405Z,8.18
2023-04-13T02:29:15.102Z,8.35
2023-04-13T02:31:45.375Z,8.20
2023-04-13T02:34:15.420Z,8.95
2023-04-13T02:36:46.596Z,8.35
2023-04-13T02:39:16.730Z,8.80
2023-04-13T02:41:47.637Z,8.52
2023-04-13T02:44:21.301Z,8.73
2023-04-13T02:46:51.584Z,8.85
2023-04-13T02:49:21.770Z,9.00
2023-04-13T02:51:52.357Z,9.57
2023-04-13T02:54:22.405Z,9.35
2023-04-13T02:56:52.361Z,9.98
2023-04-13T02:59:25.725Z,10.68
2023-04-13T03:01:58.730Z,11.25
2023-04-13T03:04:29.266Z,10.90
2023-04-13T03:06:59.317Z,11.40
2023-04-13T03:09:29.337Z,12.68
2023-04-13T03:11:59.312Z,12.68
2023-04-13T03:14:33.311Z,13.02
2023-04-13T03:17:03.404Z,13.65
2023-04-13T03:19:35.678Z,13.30
2023-04-13T03:22:05.751Z,12.73
2023-04-13T03:24:36.020Z,11.70
2023-04-13T03:27:06.532Z,11.73
2023-04-13T03:29:39.310Z,11.15
2023-04-13T03:32:09.623Z,11.40
2023-04-13T03:34:44.248Z,11.00
2023-04-13T03:37:15.085Z,11.13
2023-04-13T03:39:45.173Z,11.05
2023-04-13T03:42:15.483Z,10.82
2023-04-13T03:44:48.027Z,10.57
2023-04-13T03:47:18.241Z,10.50
2023-04-13T03:49:48.315Z,10.25
2023-04-13T03:52:18.409Z,10.02
2023-04-13T03:54:48.416Z,9.38
2023-04-13T03:57:18.536Z,9.65
2023-04-13T03:59:51.778Z,10.00
2023-04-13T04:02:22.227Z,9.55
2023-04-13T04:04:52.889Z,9.18
2023-04-13T04:07:23.349Z,8.20
2023-04-13T04:09:53.526Z,8.80
2023-04-13T04:12:23.765Z,8.93
2023-04-13T04:14:56.546Z,8.38
2023-04-13T04:17:26.668Z,9.07
2023-04-13T04:19:56.953Z,9.38
2023-04-13T04:22:30.245Z,10.88
2023-04-13T04:25:02.058Z,9.52
2023-04-13T04:27:38.103Z,9.57
2023-04-13T04:30:14.107Z,9.90
2023-04-13T04:32:44.226Z,12.38
2023-04-13T04:35:15.050Z,12.20
2023-04-13T04:37:45.236Z,12.30
2023-04-13T04:40:16.181Z,11.77
2023-04-13T04:42:46.121Z,12.43
2023-04-13T04:45:18.805Z,12.10
2023-04-13T04:47:50.053Z,10.90
2023-04-13T04:50:20.538Z,11.18
2023-04-13T04:52:50.573Z,11.57
2023-04-13T04:55:20.827Z,11.15
2023-04-13T04:57:50.840Z,10.80
2023-04-13T05:00:26.433Z,10.30
2023-04-13T05:02:57.939Z,10.18
2023-04-13T05:05:28.118Z,10.07
2023-04-13T05:07:58.392Z,9.70
2023-04-13T05:10:29.218Z,9.93
2023-04-13T05:12:59.401Z,9.85
2023-04-13T05:15:32.134Z,8.75
2023-04-13T05:18:02.244Z,8.95
2023-04-13T05:20:32.232Z,8.02
2023-04-13T05:23:03.266Z,8.55
2023-04-13T05:25:33.256Z,7.72
2023-04-13T05:28:03.290Z,8.07
2023-04-13T05:30:36.000Z,7.97
2023-04-13T05:33:08.211Z,9.07
2023-04-13T05:35:39.435Z,7.53
2023-04-13T05:38:09.446Z,8.27
2023-04-13T05:40:39.552Z,8.55
2023-04-13T05:43:09.557Z,7.82
2023-04-13T05:45:42.283Z,8.75
2023-04-13T05:48:12.376Z,8.85
2023-04-13T05:50:43.240Z,8.52
2023-04-13T05:53:13.207Z,8.70
2023-04-13T05:55:48.035Z,9.18
2023-04-13T05:58:19.149Z,9.27
2023-04-13T06:00:52.180Z,7.93
2023-04-13T06:03:22.906Z,9.13
2023-04-13T06:05:53.528Z,8.55
2023-04-13T06:08:24.145Z,9.00
2023-04-13T06:10:54.203Z,9.40
2023-04-13T06:13:24.660Z,8.75
2023-04-13T06:15:57.664Z,8.30
2023-04-13T06:18:28.500Z,8.07
2023-04-13T06:20:59.860Z,8.48
2023-04-13T06:23:29.872Z,9.43
2023-04-13T06:25:59.893Z,8.57
2023-04-13T06:28:31.703Z,7.82
2023-04-13T06:31:04.579Z,9.02
2023-04-13T06:33:34.901Z,8.18
2023-04-13T06:36:06.008Z,8.18
2023-04-13T06:38:36.051Z,7.95
2023-04-13T06:41:07.045Z,9.27
2023-04-13T06:43:37.236Z,8.25
2023-04-13T06:46:10.091Z,8.63
2023-04-13T06:48:40.199Z,8.18
2023-04-13T06:51:11.987Z,7.65
2023-04-13T06:53:42.269Z,9.00
2023-04-13T06:56:12.301Z,9.43
2023-04-13T06:58:42.312Z,9.07
2023-04-13T07:01:16.464Z,9.00
2023-04-13T07:03:46.898Z,7.40
2023-04-13T07:06:19.767Z,7.78
2023-04-13T07:08:49.771Z,8.32
2023-04-13T07:11:19.811Z,8.25
2023-04-13T07:13:49.820Z,8.48
2023-04-13T07:16:22.470Z,7.03
2023-04-13T07:18:52.530Z,6.68
2023-04-13T07:21:22.491Z,6.45
2023-04-13T07:23:52.945Z,6.25
2023-04-13T07:26:23.044Z,6.57
2023-04-13T07:28:53.135Z,6.05
2023-04-13T07:31:26.785Z,5.68
2023-04-13T07:33:56.868Z,6.03
2023-04-13T07:36:27.106Z,4.95
2023-04-13T07:38:57.430Z,4.97
2023-04-13T07:41:27.600Z,4.93
2023-04-13T07:43:57.800Z,5.78
2023-04-13T07:46:30.661Z,5.38
2023-04-13T07:49:00.966Z,5.22
2023-04-13T07:51:32.500Z,4.30
2023-04-13T07:54:02.855Z,4.30
2023-04-13T07:56:33.802Z,3.72
2023-04-13T07:59:04.098Z,3.95
2023-04-13T08:01:37.037Z,4.15
2023-04-13T08:04:07.434Z,3.55
2023-04-13T08:06:38.452Z,3.33
2023-04-13T08:09:09.673Z,3.60
2023-04-13T08:11:39.768Z,3.40
2023-04-13T08:14:11.808Z,3.22
2023-04-13T08:16:44.470Z,2.50
2023-04-13T08:19:14.533Z,2.80
2023-04-13T08:21:44.728Z,2.28
2023-04-13T08:24:14.916Z,2.47
2023-04-13T08:26:45.742Z,2.90
2023-04-13T08:29:19.312Z,2.50
2023-04-13T08:31:52.691Z,2.53
2023-04-13T08:34:22.800Z,2.03
2023-04-13T08:36:55.285Z,2.30
2023-04-13T08:39:25.334Z,2.20
2023-04-13T08:41:55.326Z,2.50
2023-04-13T08:44:26.592Z,1.98
2023-04-13T08:46:59.594Z,2.38
2023-04-13T08:49:31.184Z,2.00
2023-04-13T08:52:04.984Z,2.25
2023-04-13T08:54:35.424Z,2.10
2023-04-13T08:57:06.843Z,2.05
2023-04-13T08:59:37.887Z,2.15
2023-04-13T09:02:12.323Z,2.05
2023-04-13T09:04:45.325Z,2.00
2023-04-13T09:07:22.235Z,1.77
2023-04-13T09:09:54.143Z,1.75
2023-04-13T09:12:24.345Z,1.60
2023-04-13T09:14:54.645Z,1.75
2023-04-13T09:17:32.475Z,2.00
2023-04-13T09:20:17.152Z,2.00
2023-04-13T09:22:47.354Z,1.88
2023-04-13T09:25:25.554Z,1.80
2023-04-13T09:27:56.232Z,1.50
2023-04-13T09:30:28.404Z,1.42
2023-04-13T09:33:08.621Z,1.60
2023-04-13T09:35:40.063Z,1.60
2023-04-13T09:38:11.934Z,1.50
2023-04-13T09:40:54.524Z,1.58
2023-04-13T09:43:24.787Z,1.50
2023-04-13T09:45:55.092Z,1.50
2023-04-13T09:48:27.727Z,1.42
2023-04-13T09:51:06.667Z,1.70
2023-04-13T09:53:46.619Z,1.45
2023-04-13T09:56:17.375Z,1.40
2023-04-13T09:58:51.728Z,1.60
2023-04-13T10:01:21.878Z,1.27
2023-04-13T10:03:55.388Z,1.15
2023-04-13T10:06:25.845Z,1.38
2023-04-13T10:08:55.953Z,1.42
2023-04-13T10:11:26.531Z,1.30
2023-04-13T10:14:01.137Z,1.40
2023-04-13T10:17:05.709Z,1.45
2023-04-13T10:19:45.114Z,1.65
2023-04-13T10:22:15.715Z,1.45
2023-04-13T10:24:46.583Z,1.50
2023-04-13T10:27:19.252Z,1.13
2023-04-13T10:29:50.189Z,1.40
2023-04-13T10:32:25.110Z,1.65
2023-04-13T10:34:58.503Z,1.20
2023-04-13T10:37:30.774Z,1.42
2023-04-13T10:40:14.461Z,1.30
2023-04-13T10:42:52.494Z,1.48
2023-04-13T10:45:26.499Z,1.40
2023-04-13T10:47:58.804Z,1.40
2023-04-13T10:50:31.759Z,1.33
2023-04-13T10:53:05.169Z,1.50
2023-04-13T10:55:36.836Z,1.40
2023-04-13T10:58:19.179Z,1.50
2023-04-13T11:00:51.037Z,0.95
2023-04-13T11:03:21.809Z,1.30
2023-04-13T11:06:02.608Z,1.40
2023-04-13T11:08:33.974Z,1.83
2023-04-13T11:11:03.967Z,1.30
2023-04-13T11:13:35.551Z,1.45
2023-04-13T11:16:06.849Z,1.17
2023-04-13T11:18:37.029Z,1.52
2023-04-13T11:21:18.046Z,1.75
2023-04-13T11:23:55.617Z,1.50
2023-04-13T11:26:36.427Z,1.45
2023-04-13T11:29:07.523Z,1.23
2023-04-13T11:31:42.503Z,1.33
2023-04-13T11:34:14.211Z,1.38
2023-04-13T11:36:49.942Z,1.52
2023-04-13T11:39:20.426Z,1.23
2023-04-13T11:41:50.745Z,1.20
2023-04-13T11:44:21.086Z,0.80
2023-04-13T11:46:51.721Z,1.17
2023-04-13T11:49:22.104Z,2.00
2023-04-13T11:51:55.284Z,1.38
2023-04-13T11:54:26.152Z,1.02
2023-04-13T11:56:57.821Z,1.00
2023-04-13T11:59:29.082Z,1.08
2023-04-13T12:02:03.247Z,1.23
2023-04-13T12:04:41.502Z,1.10
2023-04-13T12:07:18.788Z,1.17
2023-04-13T12:15:17.240Z,1.00
2023-04-13T12:17:59.980Z,1.17
2023-04-13T12:20:39.750Z,0.82
2023-04-13T12:23:24.991Z,1.00
2023-04-13T12:26:00.494Z,1.10
2023-04-13T12:28:34.719Z,1.30
2023-04-13T12:31:10.235Z,1.00
2023-04-13T12:33:41.247Z,1.02
2023-04-13T12:36:13.644Z,0.85
2023-04-13T12:38:46.681Z,0.90
2023-04-13T12:41:17.091Z,0.75
2023-04-13T12:43:47.372Z,0.95
2023-04-13T12:46:17.922Z,1.15
2023-04-13T12:48:48.514Z,1.17
2023-04-13T12:51:19.375Z,1.10
2023-04-13T12:53:52.362Z,0.80
2023-04-13T12:56:22.622Z,1.10
2023-04-13T12:58:52.830Z,0.88
2023-04-13T13:01:23.254Z,0.80
2023-04-13T13:03:53.698Z,1.10
2023-04-13T13:06:23.835Z,1.40
2023-04-13T13:08:57.462Z,1.38
2023-04-13T13:11:27.923Z,1.43
2023-04-13T13:13:58.113Z,1.02
2023-04-13T13:16:28.635Z,1.23
2023-04-13T13:18:58.915Z,0.88
2023-04-13T13:21:29.632Z,1.05
2023-04-13T13:24:02.790Z,1.20
2023-04-13T13:26:51.723Z,1.00
2023-04-13T13:29:24.703Z,1.02
2023-04-13T13:31:55.180Z,1.33
2023-04-13T13:34:26.323Z,1.05
2023-04-13T13:36:57.241Z,1.27
2023-04-13T13:39:30.867Z,1.00
2023-04-13T13:42:02.399Z,1.15
2023-04-13T13:44:35.138Z,1.20
2023-04-13T13:47:07.190Z,1.20
2023-04-13T13:49:37.559Z,1.02
2023-04-13T13:52:08.357Z,1.10
2023-04-13T13:54:41.467Z,0.90
2023-04-13T13:57:11.490Z,1.50
2023-04-13T13:59:41.769Z,1.20
2023-04-13T14:02:12.080Z,1.25
2023-04-13T14:04:42.326Z,1.17
2023-04-13T14:07:12.494Z,1.10
2023-04-13T14:09:45.386Z,1.10
2023-04-13T14:12:15.605Z,0.93
2023-04-13T14:14:45.798Z,1.50
2023-04-13T14:17:16.047Z,1.13
2023-04-13T14:19:46.351Z,0.70
2023-04-13T14:22:17.007Z,1.08
2023-04-13T14:24:51.915Z,0.80
2023-04-13T14:27:21.856Z,0.77
2023-04-13T14:29:51.860Z,0.90
2023-04-13T14:32:21.864Z,1.17
2023-04-13T14:34:53.540Z,1.17
2023-04-13T14:37:24.561Z,1.02
2023-04-13T14:39:58.054Z,1.15
2023-04-13T14:42:29.907Z,1.40
2023-04-13T14:45:00.204Z,0.93
2023-04-13T14:47:30.306Z,1.05
2023-04-13T14:50:01.115Z,0.90
2023-04-13T14:52:31.104Z,0.80
2023-04-13T14:55:04.401Z,1.20
2023-04-13T14:57:35.537Z,1.15
2023-04-13T15:00:08.064Z,1.10
2023-04-13T15:02:40.020Z,0.80
2023-04-13T15:05:12.613Z,0.75
2023-04-13T15:07:43.491Z,1.00
2023-04-13T15:10:16.766Z,0.90
2023-04-13T15:12:48.339Z,1.10
2023-04-13T15:15:19.321Z,0.95
2023-04-13T15:17:49.680Z,0.88
2023-04-13T15:20:20.179Z,0.77
2023-04-13T15:22:50.677Z,0.90
2023-04-13T15:25:24.523Z,0.80
2023-04-13T15:27:56.024Z,0.80
2023-04-13T15:30:31.292Z,1.08
2023-04-13T15:33:04.684Z,1.13
2023-04-13T15:35:38.308Z,0.95
2023-04-13T15:38:09.647Z,1.00
2023-04-13T15:40:43.530Z,0.95
2023-04-13T15:43:13.903Z,1.05
2023-04-13T15:45:44.078Z,0.88
2023-04-13T15:48:14.454Z,1.08
2023-04-13T15:50:44.640Z,0.90
2023-04-13T15:53:15.072Z,0.82
2023-04-13T15:55:48.835Z,3.40
2023-04-13T15:58:19.835Z,1.70
2023-04-13T16:00:50.891Z,1.50
2023-04-13T16:03:22.081Z,1.42
2023-04-13T16:05:53.355Z,1.50
2023-04-13T16:08:23.695Z,2.90
2023-04-13T16:10:57.165Z,2.38
2023-04-13T16:13:41.402Z,2.55
2023-04-13T16:16:18.539Z,3.20
2023-04-13T16:18:49.577Z,2.20
2023-04-13T16:21:20.271Z,1.08
2023-04-13T16:23:50.829Z,1.70
2023-04-13T16:26:24.167Z,1.10
2023-04-13T16:28:54.685Z,1.15
2023-04-13T16:31:24.986Z,1.20
2023-04-13T16:33:55.870Z,1.75
2023-04-13T16:36:27.425Z,1.20
2023-04-13T16:38:58.535Z,3.05
2023-04-13T16:41:31.754Z,2.85
2023-04-13T16:44:02.724Z,1.80
2023-04-13T16:46:33.340Z,1.30
2023-04-13T16:49:03.918Z,1.75
2023-04-13T16:51:35.628Z,3.05
2023-04-13T16:54:11.679Z,1.73
2023-04-13T16:56:45.028Z,1.23
2023-04-13T16:59:15.506Z,1.17
2023-04-13T17:01:46.144Z,1.05
2023-04-13T17:04:16.898Z,1.13
2023-04-13T17:06:47.569Z,1.20
2023-04-13T17:09:17.736Z,1.10
2023-04-13T17:11:50.528Z,0.90
2023-04-13T17:14:20.685Z,1.00
2023-04-13T17:16:52.008Z,0.85
2023-04-13T17:19:23.712Z,1.00
2023-04-13T17:21:54.370Z,1.38
2023-04-13T17:24:25.525Z,1.50
2023-04-13T17:26:58.371Z,1.20
2023-04-13T17:29:28.816Z,1.20
2023-04-13T17:31:59.627Z,1.17
2023-04-13T17:34:30.032Z,1.52
2023-04-13T17:37:00.861Z,2.58
2023-04-13T17:39:31.750Z,3.78
2023-04-13T17:42:04.605Z,2.90
2023-04-13T17:44:35.027Z,2.80
2023-04-13T17:47:05.274Z,2.63
2023-04-13T17:49:36.863Z,1.90
2023-04-13T17:52:07.430Z,2.05
2023-04-13T17:54:37.775Z,2.20
2023-04-13T17:57:10.719Z,1.83
2023-04-13T17:59:41.256Z,1.98
2023-04-13T18:02:11.350Z,1.65
2023-04-13T18:04:41.790Z,1.33
2023-04-13T18:07:11.938Z,1.50
2023-04-13T18:09:42.113Z,1.45
2023-04-13T18:12:14.905Z,1.40
2023-04-13T18:14:45.114Z,1.40
2023-04-13T18:17:15.600Z,1.45
2023-04-13T18:19:45.633Z,1.73
2023-04-13T18:22:15.928Z,1.85
2023-04-13T18:24:46.180Z,3.28
2023-04-13T18:27:19.000Z,3.97
2023-04-13T18:29:49.517Z,4.38
2023-04-13T18:32:19.797Z,3.35
2023-04-13T18:34:50.082Z,3.20
2023-04-13T18:37:20.653Z,3.03
2023-04-13T18:39:52.099Z,2.85
2023-04-13T18:42:24.876Z,3.42
2023-04-13T18:44:54.942Z,4.30
2023-04-13T18:47:25.990Z,3.95
2023-04-13T18:49:57.125Z,3.80
2023-04-13T18:52:28.746Z,3.08
2023-04-13T18:54:58.750Z,3.10
2023-04-13T18:57:31.318Z,3.53
2023-04-13T19:00:01.542Z,4.05
2023-04-13T19:02:31.678Z,4.15
2023-04-13T19:05:02.011Z,4.70
2023-04-13T19:07:32.104Z,4.57
2023-04-13T19:10:02.415Z,4.78
2023-04-13T19:12:35.140Z,4.25
2023-04-13T19:15:05.885Z,4.28
2023-04-13T19:17:36.593Z,4.20
2023-04-13T19:20:10.399Z,3.63
2023-04-13T19:22:40.632Z,4.00
2023-04-13T19:25:14.746Z,3.85
2023-04-13T19:27:50.272Z,4.18
2023-04-13T19:30:21.678Z,4.75
2023-04-13T19:32:54.412Z,4.60
2023-04-13T19:35:26.315Z,5.40
2023-04-13T19:37:56.493Z,5.03
2023-04-13T19:40:27.460Z,6.47
2023-04-13T19:43:00.344Z,7.07
2023-04-13T19:45:30.525Z,6.65
2023-04-13T19:48:01.231Z,7.65
2023-04-13T19:50:31.277Z,7.40
2023-04-13T19:53:01.952Z,8.35
2023-04-13T19:55:31.988Z,8.95
2023-04-13T19:58:04.854Z,7.72
2023-04-13T20:00:35.177Z,6.57
2023-04-13T20:03:05.615Z,7.32
2023-04-13T20:05:39.293Z,10.90
2023-04-13T20:08:09.993Z,9.65
2023-04-13T20:10:40.348Z,10.85
2023-04-13T20:13:13.045Z,11.27
2023-04-13T20:15:43.109Z,12.45
2023-04-13T20:18:13.329Z,12.77
2023-04-13T20:20:44.412Z,12.45
2023-04-13T20:23:14.855Z,11.77
2023-04-13T20:25:45.268Z,12.32
2023-04-13T20:28:18.704Z,10.70
2023-04-13T20:30:49.169Z,8.65
2023-04-13T20:33:19.325Z,10.18
2023-04-13T20:35:49.446Z,10.00
2023-04-13T20:38:19.703Z,8.57
2023-04-13T20:40:49.924Z,8.30
2023-04-13T20:43:23.273Z,8.25
2023-04-13T20:45:53.324Z,7.43
2023-04-13T20:50:58.897Z,7.57
2023-04-13T20:53:29.968Z,7.00
2023-04-13T20:55:59.921Z,7.32
2023-04-13T20:58:34.095Z,7.07
2023-04-13T21:01:04.739Z,7.10
2023-04-13T21:03:35.015Z,7.60
2023-04-13T21:06:05.415Z,7.50
2023-04-13T21:08:35.864Z,7.57
2023-04-13T21:11:06.488Z,8.60
2023-04-13T21:13:39.396Z,10.48
2023-04-13T21:16:10.392Z,13.48
2023-04-13T21:18:41.768Z,11.98
2023-04-13T21:21:12.207Z,9.35
2023-04-13T21:23:42.589Z,10.05
2023-04-13T21:26:12.679Z,9.75
2023-04-13T21:28:45.238Z,11.38
2023-04-13T21:31:15.187Z,10.82
2023-04-13T21:33:45.673Z,10.13
2023-04-13T21:38:49.080Z,9.90
2023-04-13T21:41:20.005Z,10.20
2023-04-13T21:43:52.843Z,9.90
2023-04-13T21:46:23.153Z,10.13
2023-04-13T21:48:53.153Z,9.65
2023-04-13T21:51:23.197Z,10.50
2023-04-13T21:53:55.255Z,8.45
2023-04-13T21:56:25.323Z,9.18
2023-04-13T21:58:58.313Z,8.38
2023-04-13T22:01:28.483Z,9.45
2023-04-13T22:03:58.678Z,9.60
2023-04-13T22:06:29.074Z,8.38
2023-04-13T22:08:59.259Z,8.13
2023-04-13T22:11:29.520Z,7.22
2023-04-13T22:14:02.799Z,7.15
2023-04-13T22:16:32.743Z,7.40
2023-04-13T22:19:02.979Z,7.40
2023-04-13T22:21:33.225Z,7.05
2023-04-13T22:24:03.169Z,7.00
2023-04-13T22:26:33.123Z,6.88
2023-04-13T22:29:05.812Z,6.28
2023-04-13T22:31:35.947Z,7.10
2023-04-13T22:34:06.074Z,7.30
2023-04-13T22:36:36.041Z,7.05
2023-04-13T22:39:06.135Z,7.38
2023-04-13T22:41:36.644Z,7.32
2023-04-13T22:44:09.236Z,8.00
2023-04-13T22:46:40.690Z,7.47
2023-04-13T22:49:10.818Z,7.55
2023-04-13T22:51:41.715Z,7.30
2023-04-13T22:54:12.015Z,7.80
2023-04-13T22:56:42.108Z,6.97
2023-04-13T22:59:16.316Z,6.63
2023-04-13T23:01:46.656Z,6.90
2023-04-13T23:04:16.860Z,6.78
2023-04-13T23:06:47.121Z,6.35
2023-04-13T23:09:17.114Z,5.93
2023-04-13T23:11:47.415Z,6.50
2023-04-13T23:14:20.925Z,6.25
2023-04-13T23:16:51.214Z,4.82
2023-04-13T23:19:21.337Z,5.18
2023-04-13T23:21:51.289Z,5.30
2023-04-13T23:24:21.230Z,5.30
2023-04-13T23:26:51.175Z,5.00
2023-04-13T23:29:23.860Z,4.80
2023-04-13T23:31:53.889Z,3.80
2023-04-13T23:34:23.865Z,3.88
2023-04-13T23:36:53.859Z,3.45
2023-04-13T23:39:24.114Z,3.13
2023-04-13T23:41:54.045Z,3.20
2023-04-13T23:44:26.671Z,3.15
2023-04-13T23:46:56.787Z,3.40
2023-04-13T23:49:26.771Z,3.30
2023-04-13T23:51:56.730Z,3.53
2023-04-13T23:54:26.788Z,3.30
2023-04-13T23:56:56.768Z,3.22
2023-04-13T23:59:29.325Z,3.05
